createdAt,value
2022-12-26T00:01:31.397Z,9.36
2022-12-26T00:03:57.949Z,9.39
2022-12-26T00:06:24.413Z,9.40
2022-12-26T00:08:50.753Z,9.37
2022-12-26T00:11:17.062Z,9.39
2022-12-26T00:13:43.389Z,9.37
2022-12-26T00:16:09.805Z,9.35
2022-12-26T00:18:36.185Z,9.40
2022-12-26T00:21:02.498Z,9.47
2022-12-26T00:23:28.836Z,9.49
2022-12-26T00:25:55.147Z,9.52
2022-12-26T00:28:21.460Z,9.52
2022-12-26T00:30:47.763Z,9.52
2022-12-26T00:33:14.111Z,9.47
2022-12-26T00:35:40.434Z,9.49
2022-12-26T00:38:07.936Z,9.49
2022-12-26T00:40:34.255Z,9.47
2022-12-26T00:43:00.568Z,9.44
2022-12-26T00:45:26.967Z,9.44
2022-12-26T00:47:53.287Z,9.39
2022-12-26T00:50:19.617Z,9.40
2022-12-26T00:52:45.963Z,9.42
2022-12-26T00:55:12.328Z,9.43
2022-12-26T00:57:38.669Z,9.42
2022-12-26T01:00:04.972Z,9.41
2022-12-26T01:02:42.518Z,9.38
2022-12-26T01:05:09.007Z,9.38
2022-12-26T01:08:21.776Z,9.36
2022-12-26T01:10:22.848Z,9.33
2022-12-26T01:12:49.153Z,9.34
2022-12-26T01:15:15.485Z,9.32
2022-12-26T01:17:41.805Z,9.34
2022-12-26T01:20:08.123Z,9.32
2022-12-26T01:22:34.508Z,9.27
2022-12-26T01:25:00.833Z,9.22
2022-12-26T01:27:27.427Z,9.26
2022-12-26T01:29:54.396Z,9.28
2022-12-26T01:32:20.762Z,9.29
2022-12-26T01:34:47.175Z,9.29
2022-12-26T01:37:13.526Z,9.28
2022-12-26T01:39:39.829Z,9.29
2022-12-26T01:42:06.162Z,9.21
2022-12-26T01:44:32.475Z,9.26
2022-12-26T01:46:58.785Z,9.24
2022-12-26T01:49:25.101Z,9.27
2022-12-26T01:51:51.408Z,9.24
2022-12-26T01:54:39.529Z,9.26
2022-12-26T01:57:04.118Z,9.26
2022-12-26T01:59:30.495Z,9.33
2022-12-26T02:01:56.979Z,9.29
2022-12-26T02:04:42.338Z,9.31
2022-12-26T02:07:08.708Z,9.23
2022-12-26T02:09:35.013Z,9.26
2022-12-26T02:12:36.265Z,9.21
2022-12-26T02:14:47.606Z,9.26
2022-12-26T02:17:13.920Z,9.26
2022-12-26T02:19:40.226Z,9.28
2022-12-26T02:22:06.551Z,9.30
2022-12-26T02:24:32.861Z,9.22
2022-12-26T02:26:59.203Z,9.20
2022-12-26T02:29:25.507Z,9.24
2022-12-26T02:31:51.905Z,9.32
2022-12-26T02:34:18.226Z,9.31
2022-12-26T02:36:44.555Z,9.39
2022-12-26T02:39:43.253Z,9.29
2022-12-26T02:41:57.174Z,9.28
2022-12-26T02:44:42.451Z,9.32
2022-12-26T02:47:08.771Z,9.27
2022-12-26T02:49:55.206Z,9.28
2022-12-26T02:52:40.079Z,9.31
2022-12-26T02:55:25.176Z,9.32
2022-12-26T02:58:10.035Z,9.35
2022-12-26T03:00:55.896Z,9.36
2022-12-26T03:03:40.867Z,9.39
2022-12-26T03:06:25.843Z,9.37
2022-12-26T03:09:10.932Z,9.40
2022-12-26T03:11:55.979Z,9.45
2022-12-26T03:14:22.355Z,9.42
2022-12-26T03:17:07.684Z,9.42
2022-12-26T03:19:34.115Z,9.44
2022-12-26T03:22:00.459Z,9.39
2022-12-26T03:24:46.749Z,9.34
2022-12-26T03:27:13.085Z,9.36
2022-12-26T03:29:58.141Z,9.33
2022-12-26T03:32:24.454Z,9.34
2022-12-26T03:34:50.757Z,9.42
2022-12-26T03:37:17.069Z,9.48
2022-12-26T03:40:02.329Z,9.41
2022-12-26T03:42:47.334Z,9.49
2022-12-26T03:45:32.217Z,9.48
2022-12-26T03:48:17.287Z,9.51
2022-12-26T03:51:02.171Z,9.58
2022-12-26T03:53:47.072Z,9.58
2022-12-26T03:56:32.957Z,9.54
2022-12-26T03:59:18.206Z,9.52
2022-12-26T04:02:03.789Z,9.53
2022-12-26T04:04:49.063Z,9.53
2022-12-26T04:07:33.992Z,9.48
2022-12-26T04:10:18.752Z,9.49
2022-12-26T04:13:03.829Z,9.45
2022-12-26T04:15:48.686Z,9.46
2022-12-26T04:18:33.854Z,9.45
2022-12-26T04:21:00.210Z,9.48
2022-12-26T04:23:45.482Z,9.50
2022-12-26T04:26:30.428Z,9.44
2022-12-26T04:29:15.300Z,9.43
2022-12-26T04:32:00.216Z,9.46
2022-12-26T04:34:45.088Z,9.51
2022-12-26T04:37:30.061Z,9.55
2022-12-26T04:40:15.303Z,9.44
2022-12-26T04:43:00.307Z,9.49
2022-12-26T04:45:26.605Z,9.46
2022-12-26T04:48:11.821Z,9.47
2022-12-26T04:50:38.125Z,9.60
2022-12-26T04:53:04.483Z,9.59
2022-12-26T04:55:30.822Z,9.58
2022-12-26T04:57:57.146Z,9.56
2022-12-26T05:00:25.125Z,9.79
2022-12-26T05:03:14.570Z,9.97
2022-12-26T05:06:03.062Z,10.23
2022-12-26T05:08:48.261Z,10.71
2022-12-26T05:11:14.700Z,10.99
2022-12-26T05:13:41.004Z,11.18
2022-12-26T05:16:29.341Z,11.15
2022-12-26T05:19:14.534Z,11.19
2022-12-26T05:22:03.303Z,11.63
2022-12-26T05:24:48.228Z,11.81
2022-12-26T05:27:33.595Z,12.01
2022-12-26T05:30:00.014Z,12.08
2022-12-26T05:32:45.366Z,11.85
2022-12-26T05:35:11.732Z,11.96
2022-12-26T05:37:38.052Z,11.84
2022-12-26T05:40:04.365Z,11.94
2022-12-26T05:42:30.681Z,12.12
2022-12-26T05:44:57.264Z,12.03
2022-12-26T05:47:23.609Z,12.21
2022-12-26T05:49:49.993Z,12.07
2022-12-26T05:52:16.303Z,12.26
2022-12-26T05:54:42.607Z,12.26
2022-12-26T05:57:08.917Z,12.51
2022-12-26T05:59:35.259Z,12.28
2022-12-26T06:02:05.364Z,12.09
2022-12-26T06:04:33.789Z,12.10
2022-12-26T06:07:00.161Z,12.01
2022-12-26T06:09:26.468Z,12.17
2022-12-26T06:14:24.270Z,12.05
2022-12-26T06:19:22.250Z,12.20
2022-12-26T06:21:48.610Z,12.25
2022-12-26T06:24:14.941Z,12.07
2022-12-26T06:26:41.517Z,12.08
2022-12-26T06:29:07.850Z,12.00
2022-12-26T06:31:34.475Z,12.03
2022-12-26T06:34:02.147Z,11.94
2022-12-26T06:36:28.651Z,11.94
2022-12-26T06:38:54.999Z,12.09
2022-12-26T06:41:21.338Z,12.13
2022-12-26T06:43:47.706Z,12.09
2022-12-26T06:46:14.078Z,11.94
2022-12-26T06:51:12.250Z,12.11
2022-12-26T06:56:10.245Z,11.92
2022-12-26T07:01:08.326Z,12.16
2022-12-26T07:03:34.778Z,12.09
2022-12-26T07:06:01.103Z,11.95
2022-12-26T07:08:27.617Z,11.88
2022-12-26T07:10:53.908Z,12.02
2022-12-26T07:13:20.216Z,11.93
2022-12-26T07:15:46.527Z,11.91
2022-12-26T07:20:44.245Z,11.96
2022-12-26T07:23:10.554Z,11.95
2022-12-26T07:25:36.952Z,11.78
2022-12-26T07:28:03.284Z,11.84
2022-12-26T07:30:29.613Z,11.88
2022-12-26T07:32:56.275Z,11.70
2022-12-26T07:35:22.617Z,11.70
2022-12-26T07:37:48.931Z,11.59
2022-12-26T07:40:15.246Z,11.53
2022-12-26T07:42:41.548Z,11.44
2022-12-26T07:45:07.896Z,11.37
2022-12-26T07:47:34.392Z,11.16
2022-12-26T07:52:32.302Z,11.17
2022-12-26T07:54:58.636Z,11.26
2022-12-26T08:00:11.545Z,11.38
2022-12-26T08:02:38.038Z,11.45
2022-12-26T08:05:04.419Z,11.51
2022-12-26T08:07:30.721Z,11.62
2022-12-26T08:09:58.564Z,11.58
2022-12-26T08:12:26.876Z,11.62
2022-12-26T08:14:53.197Z,11.62
2022-12-26T08:19:51.313Z,11.70
2022-12-26T08:22:17.628Z,11.70
2022-12-26T08:27:16.147Z,11.83
2022-12-26T08:29:42.449Z,11.86
2022-12-26T08:32:08.845Z,12.07
2022-12-26T08:34:35.229Z,12.28
2022-12-26T08:37:01.532Z,12.25
2022-12-26T08:39:27.856Z,12.36
2022-12-26T08:41:54.195Z,12.37
2022-12-26T08:44:28.445Z,12.48
2022-12-26T08:46:59.209Z,12.45
2022-12-26T08:49:25.520Z,12.60
2022-12-26T08:54:23.241Z,12.68
2022-12-26T08:56:49.552Z,12.86
2022-12-26T08:59:16.046Z,12.92
2022-12-26T09:01:42.485Z,12.82
2022-12-26T09:06:40.354Z,12.82
2022-12-26T09:09:07.945Z,12.85
2022-12-26T09:11:34.287Z,12.97
2022-12-26T09:14:00.601Z,13.00
2022-12-26T09:16:29.551Z,12.97
2022-12-26T09:21:29.208Z,13.02
2022-12-26T09:23:55.553Z,13.07
2022-12-26T09:28:53.183Z,13.11
2022-12-26T09:31:19.509Z,13.36
2022-12-26T09:33:47.290Z,13.70
2022-12-26T09:36:15.111Z,13.84
2022-12-26T09:38:41.668Z,14.07
2022-12-26T09:41:07.986Z,14.02
2022-12-26T09:43:34.356Z,13.90
2022-12-26T09:46:06.085Z,13.82
2022-12-26T09:48:32.625Z,13.89
2022-12-26T09:50:58.974Z,13.79
2022-12-26T09:53:25.288Z,13.73
2022-12-26T09:55:51.630Z,13.66
2022-12-26T09:58:17.927Z,13.71
2022-12-26T10:00:44.373Z,13.60
2022-12-26T10:03:10.705Z,13.57
2022-12-26T10:05:37.020Z,13.63
2022-12-26T10:15:39.319Z,13.36
2022-12-26T10:18:05.665Z,13.34
2022-12-26T10:20:32.059Z,13.29
2022-12-26T10:23:00.137Z,13.40
2022-12-26T10:25:33.467Z,13.39
2022-12-26T10:28:00.199Z,13.29
2022-12-26T10:30:27.602Z,13.24
2022-12-26T10:32:57.150Z,13.08
2022-12-26T10:35:23.532Z,13.14
2022-12-26T10:37:51.455Z,13.15
2022-12-26T10:40:17.825Z,13.17
2022-12-26T10:42:44.152Z,13.16
2022-12-26T10:45:10.871Z,13.21
2022-12-26T10:47:37.811Z,13.22
2022-12-26T10:50:04.137Z,13.30
2022-12-26T10:52:30.450Z,13.26
2022-12-26T10:57:28.249Z,13.40
2022-12-26T10:59:54.593Z,13.42
2022-12-26T11:02:21.016Z,13.45
2022-12-26T11:05:13.074Z,13.48
2022-12-26T11:10:05.213Z,13.58
2022-12-26T11:12:31.576Z,13.62
2022-12-26T11:14:57.921Z,13.68
2022-12-26T11:19:56.165Z,13.63
2022-12-26T11:22:22.802Z,13.63
2022-12-26T11:24:49.118Z,13.83
2022-12-26T11:27:15.436Z,13.87
2022-12-26T11:29:42.689Z,13.82
2022-12-26T11:32:08.988Z,13.75
2022-12-26T11:37:07.180Z,13.83
2022-12-26T11:39:33.526Z,13.74
2022-12-26T11:41:59.883Z,13.89
2022-12-26T11:44:26.264Z,13.91
2022-12-26T11:46:52.719Z,13.82
2022-12-26T11:49:19.085Z,13.78
2022-12-26T11:51:45.391Z,13.77
2022-12-26T11:54:12.182Z,13.71
2022-12-26T11:56:38.492Z,13.69
2022-12-26T12:01:36.193Z,13.58
2022-12-26T12:04:02.580Z,13.68
2022-12-26T12:06:28.915Z,13.73
2022-12-26T12:09:02.271Z,13.46
2022-12-26T12:11:31.790Z,13.43
2022-12-26T12:13:58.781Z,13.42
2022-12-26T12:16:25.108Z,13.33
2022-12-26T12:18:51.499Z,13.27
2022-12-26T12:21:17.847Z,13.22
2022-12-26T12:23:44.212Z,13.16
2022-12-26T12:26:10.573Z,13.10
2022-12-26T12:28:36.948Z,13.07
2022-12-26T12:31:03.339Z,12.96
2022-12-26T12:33:29.723Z,13.03
2022-12-26T12:35:56.074Z,13.01
2022-12-26T12:38:22.447Z,13.01
2022-12-26T12:40:48.765Z,13.03
2022-12-26T12:43:15.160Z,12.97
2022-12-26T12:45:41.555Z,12.94
2022-12-26T12:48:07.913Z,12.96
2022-12-26T12:50:34.506Z,12.92
2022-12-26T12:53:00.831Z,12.97
2022-12-26T12:55:31.239Z,12.92
2022-12-26T12:57:57.615Z,12.90
2022-12-26T13:00:24.150Z,12.91
2022-12-26T13:02:52.305Z,12.86
2022-12-26T13:05:18.750Z,12.75
2022-12-26T13:07:47.443Z,12.85
2022-12-26T13:10:13.990Z,12.78
2022-12-26T13:12:40.361Z,12.74
2022-12-26T13:15:06.766Z,12.37
2022-12-26T13:17:33.160Z,10.96
2022-12-26T13:20:02.327Z,10.53
2022-12-26T13:22:29.244Z,10.25
2022-12-26T13:24:55.559Z,10.01
2022-12-26T13:27:21.867Z,9.86
2022-12-26T13:29:48.843Z,9.79
2022-12-26T13:32:15.202Z,9.71
2022-12-26T13:34:41.508Z,9.82
2022-12-26T13:39:39.198Z,9.94
2022-12-26T13:44:56.137Z,9.99
2022-12-26T13:47:22.451Z,9.85
2022-12-26T13:52:20.203Z,9.90
2022-12-26T13:54:46.515Z,9.94
2022-12-26T13:57:16.145Z,9.93
2022-12-26T13:59:42.442Z,9.94
2022-12-26T14:02:11.124Z,9.95
2022-12-26T14:04:41.039Z,9.96
2022-12-26T14:07:07.382Z,10.04
2022-12-26T14:09:33.690Z,10.09
2022-12-26T14:12:00.050Z,10.11
2022-12-26T14:16:59.211Z,10.14
2022-12-26T14:19:25.609Z,10.18
2022-12-26T14:21:54.093Z,10.23
2022-12-26T14:24:20.398Z,10.19
2022-12-26T14:26:50.101Z,10.20
2022-12-26T14:29:16.416Z,10.22
2022-12-26T14:31:42.721Z,9.82
2022-12-26T14:34:10.836Z,9.99
2022-12-26T14:36:37.334Z,10.02
2022-12-26T14:41:54.148Z,10.00
2022-12-26T14:44:20.452Z,9.71
2022-12-26T14:46:47.007Z,9.69
2022-12-26T14:49:13.314Z,9.57
2022-12-26T14:51:39.761Z,9.63
2022-12-26T14:54:06.091Z,9.67
2022-12-26T14:56:32.426Z,9.72
2022-12-26T14:58:58.742Z,9.55
2022-12-26T15:01:25.108Z,9.77
2022-12-26T15:03:51.524Z,9.72
2022-12-26T15:06:17.835Z,9.72
2022-12-26T15:08:46.127Z,9.84
2022-12-26T15:11:12.446Z,9.70
2022-12-26T15:13:42.073Z,9.90
2022-12-26T15:16:08.479Z,10.01
2022-12-26T15:21:06.827Z,9.91
2022-12-26T15:23:33.182Z,9.94
2022-12-26T15:26:03.127Z,9.98
2022-12-26T15:28:29.429Z,9.88
2022-12-26T15:30:55.791Z,9.97
2022-12-26T15:33:22.118Z,9.93
2022-12-26T15:35:48.505Z,9.89
2022-12-26T15:38:14.813Z,9.99
2022-12-26T15:40:41.124Z,9.99
2022-12-26T15:43:07.458Z,9.86
2022-12-26T15:45:33.767Z,9.87
2022-12-26T15:48:00.100Z,9.70
2022-12-26T15:50:26.447Z,9.58
2022-12-26T15:52:52.991Z,9.58
2022-12-26T15:55:19.289Z,9.40
2022-12-26T15:57:45.610Z,9.46
2022-12-26T16:00:13.111Z,9.51
2022-12-26T16:02:39.690Z,9.33
2022-12-26T16:05:06.089Z,9.32
2022-12-26T16:07:32.404Z,9.50
2022-12-26T16:09:58.746Z,9.47
2022-12-26T16:17:29.127Z,9.69
2022-12-26T16:19:55.436Z,9.63
2022-12-26T16:22:40.661Z,9.65
2022-12-26T16:25:06.970Z,9.62
2022-12-26T16:27:33.288Z,9.71
2022-12-26T16:29:59.677Z,9.72
2022-12-26T16:32:26.029Z,9.60
2022-12-26T16:34:52.401Z,9.65
2022-12-26T16:37:19.348Z,9.57
2022-12-26T16:39:45.666Z,9.61
2022-12-26T16:42:11.965Z,9.57
2022-12-26T16:44:38.336Z,9.52
2022-12-26T16:47:04.792Z,9.48
2022-12-26T16:49:32.230Z,9.48
2022-12-26T16:51:58.556Z,9.46
2022-12-26T16:54:24.855Z,9.39
2022-12-26T16:56:51.259Z,9.29
2022-12-26T16:59:18.141Z,9.32
2022-12-26T17:01:48.141Z,9.29
2022-12-26T17:04:14.597Z,9.22
2022-12-26T17:06:40.999Z,9.29
2022-12-26T17:09:07.335Z,9.33
2022-12-26T17:11:33.666Z,9.30
2022-12-26T17:14:00.221Z,9.38
2022-12-26T17:16:26.586Z,9.44
2022-12-26T17:18:52.967Z,9.34
2022-12-26T17:21:22.705Z,9.54
2022-12-26T17:23:49.025Z,9.55
2022-12-26T17:26:15.400Z,9.51
2022-12-26T17:28:41.722Z,9.42
2022-12-26T17:31:08.069Z,9.45
2022-12-26T17:33:34.425Z,9.53
2022-12-26T17:38:48.491Z,9.45
2022-12-26T17:41:14.881Z,9.48
2022-12-26T17:43:41.245Z,9.53
2022-12-26T17:46:07.644Z,9.56
2022-12-26T17:48:33.977Z,9.59
2022-12-26T17:51:00.314Z,9.61
2022-12-26T17:53:30.134Z,9.60
2022-12-26T17:55:56.479Z,9.51
2022-12-26T17:58:23.296Z,9.51
2022-12-26T18:03:21.131Z,9.54
2022-12-26T18:05:47.575Z,9.52
2022-12-26T18:10:45.083Z,9.61
2022-12-26T18:13:11.403Z,9.48
2022-12-26T18:15:37.770Z,9.57
2022-12-26T18:18:04.772Z,9.63
2022-12-26T18:20:31.084Z,9.63
2022-12-26T18:22:57.460Z,9.63
2022-12-26T18:25:23.789Z,9.53
2022-12-26T18:27:50.126Z,9.47
2022-12-26T18:30:16.939Z,9.48
2022-12-26T18:32:43.267Z,9.62
2022-12-26T18:35:10.180Z,9.62
2022-12-26T18:37:36.558Z,9.71
2022-12-26T18:40:02.864Z,9.70
2022-12-26T18:45:01.058Z,9.88
2022-12-26T18:47:27.368Z,9.92
2022-12-26T18:49:53.785Z,9.94
2022-12-26T18:52:20.097Z,9.87
2022-12-26T18:54:46.442Z,9.96
2022-12-26T18:57:12.941Z,10.01
2022-12-26T18:59:39.296Z,10.03
2022-12-26T19:04:38.026Z,10.02
2022-12-26T19:07:04.348Z,9.95
2022-12-26T19:09:30.879Z,9.91
2022-12-26T19:11:58.888Z,9.93
2022-12-26T19:14:25.186Z,9.87
2022-12-26T19:16:51.548Z,9.87
2022-12-26T19:19:17.885Z,9.70
2022-12-26T19:21:44.188Z,9.69
2022-12-26T19:24:10.492Z,9.68
2022-12-26T19:26:36.832Z,9.70
2022-12-26T19:29:03.179Z,9.72
2022-12-26T19:31:30.111Z,9.64
2022-12-26T19:33:56.431Z,9.68
2022-12-26T19:36:22.737Z,9.66
2022-12-26T19:38:49.039Z,9.67
2022-12-26T19:41:15.416Z,9.62
2022-12-26T19:43:41.986Z,9.59
2022-12-26T19:48:42.051Z,9.61
2022-12-26T19:51:08.371Z,9.57
2022-12-26T19:53:34.674Z,9.61
2022-12-26T19:56:01.002Z,9.60
2022-12-26T19:58:27.323Z,9.57
2022-12-26T20:00:53.680Z,9.59
2022-12-26T20:03:22.087Z,9.57
2022-12-26T20:05:48.407Z,9.53
2022-12-26T20:08:14.830Z,9.54
2022-12-26T20:10:41.129Z,9.59
2022-12-26T20:13:07.470Z,9.56
2022-12-26T20:15:33.924Z,9.58
2022-12-26T20:18:00.437Z,9.58
2022-12-26T20:20:27.024Z,9.56
2022-12-26T20:22:53.499Z,9.50
2022-12-26T20:25:19.846Z,9.63
2022-12-26T20:27:50.025Z,9.32
2022-12-26T20:30:16.344Z,8.53
2022-12-26T20:32:46.837Z,8.03
2022-12-26T20:35:13.161Z,7.82
2022-12-26T20:37:39.561Z,7.78
2022-12-26T20:40:05.890Z,7.79
2022-12-26T20:42:32.192Z,7.78
2022-12-26T20:44:58.514Z,7.75
2022-12-26T20:47:24.832Z,7.62
2022-12-26T20:52:23.020Z,7.69
2022-12-26T20:57:21.023Z,7.61
2022-12-26T20:59:47.331Z,7.80
2022-12-26T21:02:13.810Z,7.65
2022-12-26T21:04:40.248Z,7.55
2022-12-26T21:07:10.020Z,7.49
2022-12-26T21:09:40.943Z,7.42
2022-12-26T21:12:12.067Z,7.35
2022-12-26T21:14:38.375Z,7.50
2022-12-26T21:17:04.765Z,7.41
2022-12-26T21:19:31.087Z,7.42
2022-12-26T21:21:57.411Z,7.42
2022-12-26T21:24:23.769Z,7.39
2022-12-26T21:29:22.020Z,7.40
2022-12-26T21:31:48.343Z,7.54
2022-12-26T21:37:04.910Z,7.50
2022-12-26T21:39:31.284Z,7.39
2022-12-26T21:42:00.964Z,7.39
2022-12-26T21:44:27.283Z,7.42
2022-12-26T21:46:53.612Z,7.25
2022-12-26T21:49:21.125Z,7.26
2022-12-26T21:51:47.446Z,7.10
2022-12-26T21:54:32.654Z,6.99
2022-12-26T21:56:58.988Z,6.85
2022-12-26T22:02:34.879Z,6.76
2022-12-26T22:05:01.334Z,6.67
2022-12-26T22:07:27.687Z,6.71
2022-12-26T22:09:54.002Z,6.56
2022-12-26T22:12:39.295Z,6.50
2022-12-26T22:15:05.584Z,6.39
2022-12-26T22:20:06.955Z,6.37
2022-12-26T22:22:33.331Z,6.28
2022-12-26T22:24:59.697Z,6.12
2022-12-26T22:27:26.005Z,6.02
2022-12-26T22:29:52.967Z,5.95
2022-12-26T22:32:19.294Z,6.00
2022-12-26T22:34:45.691Z,5.86
2022-12-26T22:37:11.998Z,5.69
2022-12-26T22:39:38.358Z,5.49
2022-12-26T22:42:04.658Z,5.54
2022-12-26T22:44:34.978Z,5.63
2022-12-26T22:47:01.328Z,5.62
2022-12-26T22:51:59.676Z,5.54
2022-12-26T22:54:25.984Z,5.50
2022-12-26T22:56:52.311Z,5.43
2022-12-26T23:01:50.054Z,5.28
2022-12-26T23:04:16.461Z,5.34
2022-12-26T23:06:42.853Z,5.17
2022-12-26T23:09:09.169Z,5.23
2022-12-26T23:14:07.031Z,5.40
2022-12-26T23:16:33.463Z,5.17
2022-12-26T23:19:18.618Z,5.18
2022-12-26T23:21:45.116Z,5.36
2022-12-26T23:24:11.963Z,5.39
2022-12-26T23:26:38.264Z,5.56
2022-12-26T23:29:23.438Z,5.51
2022-12-26T23:31:49.766Z,5.19
2022-12-26T23:34:16.945Z,5.12
2022-12-26T23:36:43.253Z,5.01
2022-12-26T23:39:09.675Z,4.85
2022-12-26T23:41:35.970Z,5.19
2022-12-26T23:44:02.283Z,4.77
2022-12-26T23:46:28.755Z,4.88
2022-12-26T23:48:55.105Z,4.93
2022-12-26T23:51:21.424Z,4.49
2022-12-26T23:53:47.745Z,4.64
2022-12-26T23:56:14.057Z,4.79
2022-12-26T23:58:40.402Z,5.04
